Time;durP1;ratioP1;P1;durP2;ratioP2;P2;SDS_P1;SDS_P2;PMS_P1;PMS_P2;Temp;Humidity;BMP_temperature;BMP_pressure;BME280_temperature;BME280_humidity;BME280_pressure;Samples;Min_cycle;Max_cycle;Signal;HPM_P1;HPM_P2
2022/01/03 00:06:40;;;;;;;1.92;1.10;;;12.50;74.70;;;;;;20902189;28;20041;-85
2022/01/03 00:16:41;;;;;;;1.30;0.73;;;12.50;74.60;;;;;;20870770;28;20029;-84
2022/01/03 00:26:42;;;;;;;0.80;0.65;;;12.50;74.70;;;;;;20918965;28;20041;-84
2022/01/03 00:36:47;;;;;;;2.25;0.70;;;12.50;74.70;;;;;;20885700;28;20037;-85
2022/01/03 00:46:47;;;;;;;1.92;0.68;;;12.50;74.60;;;;;;20890387;28;20041;-85
2022/01/03 00:56:54;;;;;;;0.95;0.52;;;12.50;75.30;;;;;;20900921;28;20036;-84
2022/01/03 01:06:55;;;;;;;2.53;1.00;;;12.50;74.70;;;;;;20884669;28;20479;-84
2022/01/03 01:16:56;;;;;;;0.80;0.60;;;12.50;74.60;;;;;;20915162;28;20116;-84
2022/01/03 01:37:18;;;;;;;1.13;0.65;;;12.50;74.60;;;;;;20910312;28;20103;-84
2022/01/03 01:47:19;;;;;;;1.30;0.57;;;12.50;74.60;;;;;;20877364;28;20033;-84
2022/01/03 01:57:21;;;;;;;0.52;0.32;;;12.50;74.60;;;;;;20893141;28;20043;-83
2022/01/03 02:08:06;;;;;;;1.15;0.57;;;12.40;74.40;;;;;;20893651;28;20131;-84
2022/01/03 02:18:07;;;;;;;1.02;0.40;;;12.50;74.40;;;;;;20911464;28;20422;-83
2022/01/03 02:28:08;;;;;;;0.88;0.45;;;12.50;74.50;;;;;;20907691;28;20056;-84
2022/01/03 02:38:10;;;;;;;0.43;0.30;;;12.40;74.60;;;;;;20894199;28;20561;-82
2022/01/03 02:48:12;;;;;;;0.32;0.22;;;12.40;74.60;;;;;;20910110;28;20040;-84
2022/01/03 02:58:14;;;;;;;0.57;0.28;;;12.50;74.80;;;;;;20908724;28;20119;-83
2022/01/03 03:08:18;;;;;;;2.10;0.40;;;12.40;74.70;;;;;;20893837;28;20044;-82
2022/01/03 03:18:19;;;;;;;0.15;0.10;;;12.40;74.70;;;;;;20892692;28;20033;-83
2022/01/03 03:28:24;;;;;;;3.97;0.70;;;12.40;75.30;;;;;;20907951;28;20526;-83
2022/01/03 03:38:26;;;;;;;4.18;0.47;;;12.30;74.60;;;;;;20908476;28;20364;-84
2022/01/03 03:48:26;;;;;;;1.02;0.40;;;12.40;74.60;;;;;;20853693;28;20073;-85
2022/01/03 03:58:28;;;;;;;1.35;0.30;;;12.40;74.60;;;;;;20825490;28;20029;-84
2022/01/03 04:08:29;;;;;;;1.83;0.40;;;12.40;74.50;;;;;;20806226;28;20034;-84
2022/01/03 04:18:29;;;;;;;2.78;0.63;;;12.40;74.40;;;;;;20822971;28;20387;-84
2022/01/03 04:28:31;;;;;;;2.92;0.73;;;12.40;74.40;;;;;;20821116;28;20357;-84
2022/01/03 04:38:32;;;;;;;1.27;0.77;;;12.40;74.30;;;;;;20822922;28;20040;-82
2022/01/03 04:48:38;;;;;;;6.30;0.60;;;12.30;74.20;;;;;;20838144;28;20038;-83
2022/01/03 04:58:39;;;;;;;2.65;0.60;;;12.40;74.30;;;;;;20835599;28;20089;-85
2022/01/03 05:08:41;;;;;;;1.80;0.40;;;12.30;74.30;;;;;;20817817;28;20466;-83
2022/01/03 05:18:42;;;;;;;5.82;0.80;;;12.40;74.30;;;;;;20833568;28;20026;-83
2022/01/03 05:28:45;;;;;;;2.15;0.75;;;12.60;73.90;;;;;;20817444;28;20535;-83
2022/01/03 05:38:48;;;;;;;3.05;0.82;;;12.80;73.20;;;;;;20829201;28;20383;-78
2022/01/03 05:48:48;;;;;;;4.88;0.80;;;13.20;72.20;;;;;;20803874;28;20045;-79
2022/01/03 05:58:50;;;;;;;6.03;1.08;;;13.50;71.20;;;;;;20802852;28;20124;-80
2022/01/03 06:08:50;;;;;;;3.95;0.80;;;13.60;70.30;;;;;;20834771;28;20506;-76
2022/01/03 06:18:52;;;;;;;7.15;1.38;;;13.70;69.70;;;;;;20893206;28;20029;-78
2022/01/03 06:28:53;;;;;;;1.98;0.55;;;13.80;69.40;;;;;;20894889;28;20037;-79
2022/01/03 06:38:56;;;;;;;3.67;0.85;;;13.60;69.30;;;;;;20885199;28;20090;-81
2022/01/03 06:48:57;;;;;;;4.93;2.08;;;13.50;69.80;;;;;;20866695;28;20037;-79
2022/01/03 06:59:03;;;;;;;4.03;1.17;;;13.30;70.30;;;;;;20861322;28;20071;-80
2022/01/03 07:09:06;;;;;;;5.72;1.10;;;13.10;70.80;;;;;;20915470;28;20037;-82
2022/01/03 07:19:09;;;;;;;8.38;1.02;;;13.00;71.30;;;;;;20910722;28;20198;-79
2022/01/03 07:29:09;;;;;;;5.22;1.10;;;12.80;71.70;;;;;;20848369;28;20099;-78
2022/01/03 07:39:10;;;;;;;7.38;1.17;;;12.80;72.00;;;;;;20827603;28;20041;-78
2022/01/03 07:49:11;;;;;;;6.03;1.40;;;12.70;72.40;;;;;;20859869;28;20082;-79
2022/01/03 07:59:11;;;;;;;6.10;1.40;;;12.60;72.60;;;;;;20838989;28;20045;-78
2022/01/03 08:09:15;;;;;;;3.30;0.93;;;12.50;72.70;;;;;;20892802;28;20081;-78
2022/01/03 08:19:17;;;;;;;8.02;1.48;;;12.50;72.80;;;;;;20892113;28;20029;-78
2022/01/03 08:29:18;;;;;;;3.38;0.90;;;12.50;73.00;;;;;;20890461;28;20090;-76
2022/01/03 08:39:20;;;;;;;4.67;1.07;;;12.40;73.00;;;;;;20891908;28;20387;-78
2022/01/03 08:49:20;;;;;;;9.90;1.63;;;12.40;73.00;;;;;;20873929;28;20306;-75
2022/01/03 08:59:21;;;;;;;3.60;1.60;;;12.40;73.10;;;;;;20856494;28;20029;-75
2022/01/03 09:09:22;;;;;;;5.60;1.88;;;12.40;73.10;;;;;;20895468;28;20041;-76
2022/01/03 09:19:22;;;;;;;5.50;1.30;;;12.40;73.10;;;;;;20920559;28;20047;-77
2022/01/03 09:29:23;;;;;;;7.05;1.20;;;12.40;73.00;;;;;;20886457;28;20094;-77
2022/01/03 09:39:35;;;;;;;3.45;1.27;;;12.50;73.00;;;;;;20884583;28;20045;-77
2022/01/03 09:49:38;;;;;;;2.42;0.90;;;12.40;73.00;;;;;;20868272;28;20399;-82
2022/01/03 09:59:40;;;;;;;5.40;1.00;;;12.40;72.90;;;;;;20883373;28;20064;-73
2022/01/03 10:09:42;;;;;;;4.75;1.48;;;12.40;72.90;;;;;;20882294;28;20072;-74
2022/01/03 10:19:53;;;;;;;6.00;0.98;;;12.40;72.90;;;;;;20865811;28;20482;-75
2022/01/03 10:29:55;;;;;;;7.95;1.58;;;12.40;72.90;;;;;;20882529;28;20118;-72
2022/01/03 10:39:55;;;;;;;2.63;1.27;;;12.40;72.90;;;;;;20865530;28;20036;-74
2022/01/03 10:49:56;;;;;;;8.15;1.95;;;12.40;72.90;;;;;;20879744;28;20471;-74
2022/01/03 11:00:39;;;;;;;3.30;1.30;;;12.40;72.80;;;;;;20895908;28;20063;-76
2022/01/03 11:10:45;;;;;;;3.42;0.90;;;12.40;72.80;;;;;;20875070;28;20386;-78
2022/01/03 11:21:09;;;;;;;9.25;1.42;;;12.50;72.60;;;;;;20886519;28;20112;-81
2022/01/03 11:31:11;;;;;;;3.45;0.90;;;12.70;72.10;;;;;;21310749;22;20042;-75
2022/01/03 11:41:12;;;;;;;10.00;1.40;;;12.90;71.50;;;;;;20649869;28;20030;-74
2022/01/03 11:51:13;;;;;;;8.80;2.13;;;12.80;71.30;;;;;;20680328;28;20043;-74
2022/01/03 12:11:35;;;;;;;5.18;1.95;;;12.70;71.20;;;;;;20652662;28;20046;-77
2022/01/03 12:21:49;;;;;;;3.50;1.27;;;12.70;71.20;;;;;;20634250;28;20042;-76
2022/01/03 12:32:02;;;;;;;4.22;1.27;;;12.60;71.20;;;;;;20633403;28;20038;-76
2022/01/03 12:42:03;;;;;;;5.93;1.63;;;12.60;71.30;;;;;;20668530;28;20045;-75
2022/01/03 12:52:14;;;;;;;11.18;2.35;;;12.60;71.40;;;;;;20712821;28;20042;-77
2022/01/03 13:02:25;;;;;;;3.72;1.08;;;12.50;71.50;;;;;;20573181;28;20035;-78
2022/01/03 13:12:26;;;;;;;3.10;1.10;;;12.50;71.60;;;;;;20649198;28;20071;-78
2022/01/03 13:22:27;;;;;;;2.22;1.10;;;12.50;71.80;;;;;;20649800;28;20096;-76
2022/01/03 13:32:30;;;;;;;4.90;1.48;;;12.40;72.00;;;;;;20650555;28;20484;-77
2022/01/03 13:53:07;;;;;;;2.40;1.10;;;12.40;72.40;;;;;;20638238;28;20512;-76
2022/01/03 14:03:07;;;;;;;4.38;1.23;;;12.40;72.50;;;;;;20698700;28;20034;-77
2022/01/03 14:13:10;;;;;;;4.32;1.00;;;12.30;72.50;;;;;;20641778;28;20039;-78
2022/01/03 14:23:17;;;;;;;2.17;0.90;;;12.30;72.50;;;;;;20641156;28;20038;-78
2022/01/03 14:33:18;;;;;;;3.38;1.20;;;12.30;72.60;;;;;;20640903;28;20030;-75
2022/01/03 14:43:26;;;;;;;3.40;0.95;;;12.30;72.60;;;;;;20652099;28;20129;-77
2022/01/03 14:53:27;;;;;;;3.55;0.90;;;12.30;72.60;;;;;;20695632;28;20027;-72
2022/01/03 15:03:28;;;;;;;1.17;0.85;;;12.30;72.50;;;;;;20730712;28;20444;-72
2022/01/03 15:13:29;;;;;;;6.28;2.03;;;12.30;72.40;;;;;;20677382;28;20117;-73
2022/01/03 15:23:33;;;;;;;3.03;1.25;;;12.30;72.30;;;;;;20649681;28;20049;-74
2022/01/03 15:33:34;;;;;;;3.50;0.77;;;12.30;72.40;;;;;;20634420;28;20456;-78
2022/01/03 15:43:35;;;;;;;2.20;0.93;;;12.30;72.30;;;;;;20636241;28;20049;-75
2022/01/03 15:53:36;;;;;;;2.73;0.67;;;12.50;72.00;;;;;;20666884;28;20038;-77
2022/01/03 16:03:36;;;;;;;5.97;0.90;;;12.80;71.30;;;;;;20649805;28;20387;-73
2022/01/03 16:13:37;;;;;;;4.60;1.00;;;13.20;70.20;;;;;;20615754;28;20045;-73
2022/01/03 16:23:38;;;;;;;6.25;1.10;;;13.50;69.00;;;;;;20633573;28;20034;-77
2022/01/03 16:33:40;;;;;;;1.65;0.82;;;13.90;67.90;;;;;;20616975;28;20042;-74
2022/01/03 16:43:40;;;;;;;2.55;0.75;;;14.00;67.10;;;;;;20662919;28;20039;-75
2022/01/03 16:53:41;;;;;;;6.80;1.10;;;14.00;66.90;;;;;;20611302;28;20050;-75
2022/01/03 17:03:42;;;;;;;3.37;0.73;;;13.80;67.20;;;;;;20629188;28;20125;-75
2022/01/03 17:13:42;;;;;;;2.40;0.75;;;13.50;67.70;;;;;;20646032;28;20293;-75
2022/01/03 17:23:44;;;;;;;2.05;0.80;;;13.30;68.40;;;;;;20630140;28;20424;-75
2022/01/03 17:33:45;;;;;;;1.58;0.80;;;13.10;68.90;;;;;;20657549;28;20045;-75
2022/01/03 17:43:45;;;;;;;1.98;1.55;;;12.90;69.30;;;;;;20642302;28;20058;-75
2022/01/03 17:53:46;;;;;;;2.55;0.88;;;12.80;69.70;;;;;;20642856;28;20034;-75
2022/01/03 18:03:47;;;;;;;3.45;0.95;;;12.70;70.00;;;;;;20641281;28;20030;-75
2022/01/03 18:13:48;;;;;;;7.72;1.48;;;12.60;70.20;;;;;;20657085;28;20057;-74
2022/01/03 18:23:48;;;;;;;2.50;0.90;;;12.50;70.30;;;;;;20639671;28;20117;-75
2022/01/03 18:33:50;;;;;;;1.17;0.70;;;12.50;70.50;;;;;;20638359;28;20397;-74
2022/01/03 18:43:50;;;;;;;2.10;0.80;;;12.40;70.50;;;;;;20636968;28;20038;-75
2022/01/03 18:53:51;;;;;;;1.10;0.70;;;12.40;70.70;;;;;;20652860;28;20034;-74
2022/01/03 19:03:51;;;;;;;3.13;1.10;;;12.40;70.80;;;;;;20652828;28;20488;-75
2022/01/03 19:13:54;;;;;;;1.20;0.60;;;12.40;70.90;;;;;;20651711;28;20286;-75
2022/01/03 19:23:55;;;;;;;1.73;0.70;;;12.40;70.90;;;;;;20667678;28;20388;-76
2022/01/03 19:44:15;;;;;;;3.50;0.82;;;12.40;70.90;;;;;;20638051;28;20035;-75
2022/01/03 19:54:16;;;;;;;2.30;0.60;;;12.40;71.00;;;;;;20632534;28;20030;-75
2022/01/03 20:04:17;;;;;;;3.40;0.95;;;12.40;71.00;;;;;;20633593;28;20448;-77
2022/01/03 20:14:17;;;;;;;2.65;0.68;;;12.40;71.00;;;;;;20632137;28;20054;-72
2022/01/03 20:24:18;;;;;;;1.67;0.65;;;12.40;70.90;;;;;;20646676;28;20049;-72
2022/01/03 20:34:19;;;;;;;2.85;1.15;;;12.50;71.00;;;;;;20647546;28;20043;-73
2022/01/03 20:44:20;;;;;;;1.97;0.57;;;12.40;71.00;;;;;;20645335;28;20042;-73
2022/01/03 20:54:21;;;;;;;1.95;0.80;;;12.40;71.00;;;;;;20643573;28;20764;-72
2022/01/03 21:04:22;;;;;;;2.75;0.77;;;12.40;71.00;;;;;;20645870;28;20046;-71
2022/01/03 21:14:23;;;;;;;2.55;0.98;;;12.40;71.00;;;;;;20657090;28;20030;-71
2022/01/03 21:24:23;;;;;;;1.67;0.98;;;12.40;71.00;;;;;;20635884;28;20500;-71
2022/01/03 21:34:25;;;;;;;2.20;0.80;;;12.40;71.00;;;;;;20670280;28;20030;-71
2022/01/03 21:44:26;;;;;;;2.00;0.88;;;12.40;71.60;;;;;;20657633;28;20285;-71
2022/01/03 21:54:27;;;;;;;1.48;0.50;;;12.40;71.00;;;;;;20656714;28;20436;-71
2022/01/03 22:04:27;;;;;;;2.90;0.80;;;12.40;71.00;;;;;;20655879;28;20045;-71
2022/01/03 22:14:28;;;;;;;0.82;0.50;;;12.40;71.00;;;;;;20654504;28;20392;-71
2022/01/03 22:24:29;;;;;;;0.90;0.50;;;12.40;71.00;;;;;;20654055;28;20446;-70
2022/01/03 22:34:29;;;;;;;2.17;0.73;;;12.30;71.00;;;;;;20669623;28;20477;-71
2022/01/03 22:44:30;;;;;;;2.70;0.77;;;12.40;71.00;;;;;;20669115;28;20085;-70
2022/01/03 22:54:30;;;;;;;1.70;0.80;;;12.40;71.00;;;;;;20651964;28;20061;-71
2022/01/03 23:04:31;;;;;;;2.03;0.60;;;12.30;71.00;;;;;;20667198;28;20305;-71
2022/01/03 23:14:32;;;;;;;1.45;0.85;;;12.30;71.00;;;;;;20650386;28;20464;-72
2022/01/03 23:24:32;;;;;;;2.10;0.82;;;12.30;71.00;;;;;;20664940;28;20042;-71
2022/01/03 23:34:33;;;;;;;1.55;0.77;;;12.30;71.00;;;;;;20666350;28;20046;-70
2022/01/03 23:44:34;;;;;;;2.05;0.80;;;12.40;71.10;;;;;;20631710;28;20038;-70
2022/01/03 23:54:34;;;;;;;0.68;0.40;;;12.30;71.00;;;;;;20647631;28;20288;-71
